createdAt,value
2023-04-26T00:00:35.000Z,6.031671554252219
2023-04-26T00:01:37.000Z,6.041397849462385
2023-04-26T00:02:39.000Z,6.051124144672551
2023-04-26T00:03:41.000Z,6.031671554252219
2023-04-26T00:04:44.000Z,6.070576735092883
2023-04-26T00:05:46.000Z,6.08030303030305
2023-04-26T00:06:48.000Z,6.099755620723382
2023-04-26T00:07:50.000Z,6.041397849462385
2023-04-26T00:08:53.000Z,6.1192082111437145
2023-04-26T00:09:55.000Z,6.031671554252219
2023-04-26T00:10:57.000Z,6.021945259042052
2023-04-26T00:12:00.000Z,6.021945259042052
2023-04-26T00:13:02.000Z,5.992766373411554
2023-04-26T00:14:04.000Z,6.00249266862172
2023-04-26T00:15:07.000Z,5.992766373411554
2023-04-26T00:16:09.000Z,5.963587487781055
2023-04-26T00:17:11.000Z,5.9830400782013875
2023-04-26T00:18:13.000Z,6.051124144672551
2023-04-26T00:19:16.000Z,6.00249266862172
2023-04-26T00:20:18.000Z,5.963587487781055
2023-04-26T00:21:21.000Z,5.992766373411554
2023-04-26T00:22:23.000Z,6.00249266862172
2023-04-26T00:23:25.000Z,6.070576735092883
2023-04-26T00:24:27.000Z,6.021945259042052
2023-04-26T00:25:30.000Z,6.00249266862172
2023-04-26T00:26:32.000Z,6.08030303030305
2023-04-26T00:27:34.000Z,6.060850439882717
2023-04-26T00:28:37.000Z,6.021945259042052
2023-04-26T00:29:39.000Z,6.021945259042052
2023-04-26T00:30:41.000Z,6.00249266862172
2023-04-26T00:31:43.000Z,6.00249266862172
2023-04-26T00:32:46.000Z,6.00249266862172
2023-04-26T00:33:48.000Z,6.012218963831886
2023-04-26T00:34:50.000Z,6.070576735092883
2023-04-26T00:35:53.000Z,6.090029325513216
2023-04-26T00:36:55.000Z,6.041397849462385
2023-04-26T00:37:57.000Z,5.9830400782013875
2023-04-26T00:39:00.000Z,6.031671554252219
2023-04-26T00:40:02.000Z,6.031671554252219
2023-04-26T00:41:04.000Z,6.041397849462385
2023-04-26T00:42:07.000Z,5.9830400782013875
2023-04-26T00:43:09.000Z,5.944134897360723
2023-04-26T00:44:11.000Z,6.00249266862172
2023-04-26T00:45:14.000Z,5.963587487781055
2023-04-26T00:46:16.000Z,5.944134897360723
2023-04-26T00:47:18.000Z,5.992766373411554
2023-04-26T00:48:20.000Z,5.9830400782013875
2023-04-26T00:49:23.000Z,5.9830400782013875
2023-04-26T00:50:25.000Z,5.953861192570889
2023-04-26T00:51:27.000Z,6.031671554252219
2023-04-26T00:52:30.000Z,6.041397849462385
2023-04-26T00:53:32.000Z,6.051124144672551
2023-04-26T00:54:34.000Z,6.031671554252219
2023-04-26T00:55:37.000Z,6.012218963831886
2023-04-26T00:56:39.000Z,6.041397849462385
2023-04-26T00:57:41.000Z,6.060850439882717
2023-04-26T00:58:44.000Z,6.051124144672551
2023-04-26T00:59:46.000Z,6.021945259042052
2023-04-26T01:00:48.000Z,5.9830400782013875
2023-04-26T01:01:50.000Z,6.031671554252219
2023-04-26T01:02:53.000Z,6.00249266862172
2023-04-26T01:03:55.000Z,6.021945259042052
2023-04-26T01:04:57.000Z,5.9830400782013875
2023-04-26T01:06:00.000Z,5.973313782991221
2023-04-26T01:07:02.000Z,5.992766373411554
2023-04-26T01:08:04.000Z,5.9830400782013875
2023-04-26T01:09:07.000Z,6.031671554252219
2023-04-26T01:10:09.000Z,6.021945259042052
2023-04-26T01:11:11.000Z,6.041397849462385
2023-04-26T01:12:13.000Z,6.021945259042052
2023-04-26T01:13:16.000Z,6.012218963831886
2023-04-26T01:14:18.000Z,6.021945259042052
2023-04-26T01:15:21.000Z,6.031671554252219
2023-04-26T01:16:23.000Z,5.973313782991221
2023-04-26T01:17:25.000Z,6.00249266862172
2023-04-26T01:18:27.000Z,5.992766373411554
2023-04-26T01:19:30.000Z,6.012218963831886
2023-04-26T01:20:32.000Z,6.031671554252219
2023-04-26T01:21:34.000Z,6.060850439882717
2023-04-26T01:22:37.000Z,6.021945259042052
2023-04-26T01:23:39.000Z,6.00249266862172
2023-04-26T01:24:41.000Z,6.031671554252219
2023-04-26T01:25:44.000Z,5.992766373411554
2023-04-26T01:26:46.000Z,6.051124144672551
2023-04-26T01:27:48.000Z,6.041397849462385
2023-04-26T01:28:50.000Z,6.060850439882717
2023-04-26T01:29:53.000Z,6.060850439882717
2023-04-26T01:30:55.000Z,6.08030303030305
2023-04-26T01:31:57.000Z,6.08030303030305
2023-04-26T01:33:00.000Z,6.031671554252219
2023-04-26T01:34:02.000Z,6.070576735092883
2023-04-26T01:35:04.000Z,6.051124144672551
2023-04-26T01:36:07.000Z,5.992766373411554
2023-04-26T01:37:09.000Z,6.012218963831886
2023-04-26T01:38:11.000Z,6.021945259042052
2023-04-26T01:39:14.000Z,6.031671554252219
2023-04-26T01:40:16.000Z,6.060850439882717
2023-04-26T01:41:18.000Z,6.012218963831886
2023-04-26T01:42:20.000Z,6.012218963831886
2023-04-26T01:43:23.000Z,6.012218963831886
2023-04-26T01:44:25.000Z,6.031671554252219
2023-04-26T01:45:27.000Z,6.00249266862172
2023-04-26T01:46:30.000Z,6.060850439882717
2023-04-26T01:47:32.000Z,6.012218963831886
2023-04-26T01:48:34.000Z,6.08030303030305
2023-04-26T01:49:36.000Z,6.08030303030305
2023-04-26T01:50:39.000Z,6.060850439882717
2023-04-26T01:51:41.000Z,6.051124144672551
2023-04-26T01:52:43.000Z,6.08030303030305
2023-04-26T01:53:45.000Z,6.08030303030305
2023-04-26T01:54:48.000Z,6.1192082111437145
2023-04-26T01:55:50.000Z,6.109481915933548
2023-04-26T01:56:52.000Z,6.109481915933548
2023-04-26T01:57:55.000Z,6.08030303030305
2023-04-26T01:58:57.000Z,6.128934506353881
2023-04-26T01:59:59.000Z,6.031671554252219
2023-04-26T02:01:02.000Z,6.060850439882717
2023-04-26T02:02:04.000Z,6.041397849462385
2023-04-26T02:03:06.000Z,6.031671554252219
2023-04-26T02:04:08.000Z,6.051124144672551
2023-04-26T02:05:11.000Z,6.021945259042052
2023-04-26T02:06:13.000Z,6.070576735092883
2023-04-26T02:07:16.000Z,6.041397849462385
2023-04-26T02:08:18.000Z,6.041397849462385
2023-04-26T02:09:20.000Z,6.021945259042052
2023-04-26T02:10:23.000Z,6.021945259042052
2023-04-26T02:11:25.000Z,6.012218963831886
2023-04-26T02:12:27.000Z,5.973313782991221
2023-04-26T02:13:29.000Z,6.041397849462385
2023-04-26T02:14:32.000Z,6.099755620723382
2023-04-26T02:15:34.000Z,6.1192082111437145
2023-04-26T02:16:36.000Z,6.1192082111437145
2023-04-26T02:17:39.000Z,6.109481915933548
2023-04-26T02:18:41.000Z,6.099755620723382
2023-04-26T02:19:43.000Z,6.128934506353881
2023-04-26T02:20:46.000Z,6.128934506353881
2023-04-26T02:21:48.000Z,6.1192082111437145
2023-04-26T02:22:50.000Z,6.041397849462385
2023-04-26T02:23:53.000Z,6.109481915933548
2023-04-26T02:24:55.000Z,6.128934506353881
2023-04-26T02:25:57.000Z,6.090029325513216
2023-04-26T02:27:00.000Z,6.158113391984379
2023-04-26T02:28:02.000Z,6.090029325513216
2023-04-26T02:29:04.000Z,6.1192082111437145
2023-04-26T02:30:06.000Z,6.051124144672551
2023-04-26T02:31:09.000Z,6.070576735092883
2023-04-26T02:32:11.000Z,6.099755620723382
2023-04-26T02:33:13.000Z,6.070576735092883
2023-04-26T02:34:15.000Z,6.08030303030305
2023-04-26T02:35:18.000Z,6.041397849462385
2023-04-26T02:36:20.000Z,6.021945259042052
2023-04-26T02:37:23.000Z,6.012218963831886
2023-04-26T02:38:25.000Z,6.041397849462385
2023-04-26T02:39:27.000Z,6.051124144672551
2023-04-26T02:40:29.000Z,5.973313782991221
2023-04-26T02:41:32.000Z,6.08030303030305
2023-04-26T02:42:34.000Z,6.1192082111437145
2023-04-26T02:43:36.000Z,6.08030303030305
2023-04-26T02:44:38.000Z,6.109481915933548
2023-04-26T02:45:41.000Z,6.128934506353881
2023-04-26T02:46:43.000Z,6.138660801564047
2023-04-26T02:47:45.000Z,6.099755620723382
2023-04-26T02:48:48.000Z,6.148387096774213
2023-04-26T02:49:50.000Z,6.148387096774213
2023-04-26T02:50:52.000Z,6.099755620723382
2023-04-26T02:51:54.000Z,6.051124144672551
2023-04-26T02:52:57.000Z,6.090029325513216
2023-04-26T02:53:59.000Z,6.041397849462385
2023-04-26T02:55:01.000Z,6.070576735092883
2023-04-26T02:56:04.000Z,6.012218963831886
2023-04-26T02:57:06.000Z,6.00249266862172
2023-04-26T02:58:08.000Z,5.992766373411554
2023-04-26T02:59:10.000Z,5.963587487781055
2023-04-26T03:00:13.000Z,5.9830400782013875
2023-04-26T03:01:15.000Z,5.963587487781055
2023-04-26T03:02:17.000Z,5.953861192570889
2023-04-26T03:03:19.000Z,5.944134897360723
2023-04-26T03:04:22.000Z,5.944134897360723
2023-04-26T03:05:24.000Z,5.963587487781055
2023-04-26T03:06:26.000Z,5.944134897360723
2023-04-26T03:07:29.000Z,5.914956011730224
2023-04-26T03:08:31.000Z,5.963587487781055
2023-04-26T03:09:33.000Z,5.963587487781055
2023-04-26T03:10:36.000Z,5.992766373411554
2023-04-26T03:11:38.000Z,5.992766373411554
2023-04-26T03:12:40.000Z,6.021945259042052
2023-04-26T03:13:43.000Z,6.021945259042052
2023-04-26T03:14:45.000Z,6.021945259042052
2023-04-26T03:15:47.000Z,6.060850439882717
2023-04-26T03:16:50.000Z,6.060850439882717
2023-04-26T03:17:52.000Z,6.031671554252219
2023-04-26T03:18:54.000Z,6.070576735092883
2023-04-26T03:19:57.000Z,6.109481915933548
2023-04-26T03:20:59.000Z,6.08030303030305
2023-04-26T03:22:01.000Z,6.128934506353881
2023-04-26T03:23:03.000Z,6.070576735092883
2023-04-26T03:24:06.000Z,6.060850439882717
2023-04-26T03:25:08.000Z,6.08030303030305
2023-04-26T03:26:10.000Z,6.070576735092883
2023-04-26T03:27:13.000Z,6.031671554252219
2023-04-26T03:28:15.000Z,6.1192082111437145
2023-04-26T03:29:17.000Z,6.060850439882717
2023-04-26T03:30:19.000Z,6.099755620723382
2023-04-26T03:31:22.000Z,6.051124144672551
2023-04-26T03:32:24.000Z,6.08030303030305
2023-04-26T03:33:26.000Z,6.08030303030305
2023-04-26T03:34:29.000Z,6.060850439882717
2023-04-26T03:35:31.000Z,6.060850439882717
2023-04-26T03:36:33.000Z,6.031671554252219
2023-04-26T03:37:35.000Z,6.08030303030305
2023-04-26T03:38:38.000Z,6.08030303030305
2023-04-26T03:39:40.000Z,6.138660801564047
2023-04-26T03:40:43.000Z,6.090029325513216
2023-04-26T03:41:45.000Z,6.167839687194546
2023-04-26T03:42:47.000Z,6.138660801564047
2023-04-26T03:43:50.000Z,6.128934506353881
2023-04-26T03:44:52.000Z,6.031671554252219
2023-04-26T03:45:54.000Z,6.08030303030305
2023-04-26T03:46:56.000Z,6.070576735092883
2023-04-26T03:47:59.000Z,6.109481915933548
2023-04-26T03:49:01.000Z,6.099755620723382
2023-04-26T03:50:03.000Z,6.08030303030305
2023-04-26T03:51:06.000Z,6.00249266862172
2023-04-26T03:52:08.000Z,6.051124144672551
2023-04-26T03:53:10.000Z,6.051124144672551
2023-04-26T03:54:13.000Z,6.021945259042052
2023-04-26T03:55:15.000Z,6.021945259042052
2023-04-26T03:56:17.000Z,6.041397849462385
2023-04-26T03:57:19.000Z,6.041397849462385
2023-04-26T03:58:22.000Z,6.012218963831886
2023-04-26T03:59:24.000Z,5.9830400782013875
2023-04-26T04:00:26.000Z,5.9830400782013875
2023-04-26T04:01:29.000Z,5.953861192570889
2023-04-26T04:02:31.000Z,5.895503421309892
2023-04-26T04:03:33.000Z,5.963587487781055
2023-04-26T04:04:36.000Z,6.00249266862172
2023-04-26T04:05:38.000Z,5.9830400782013875
2023-04-26T04:06:40.000Z,6.031671554252219
2023-04-26T04:07:42.000Z,6.012218963831886
2023-04-26T04:08:45.000Z,5.992766373411554
2023-04-26T04:09:47.000Z,5.992766373411554
2023-04-26T04:10:49.000Z,6.041397849462385
2023-04-26T04:11:52.000Z,6.041397849462385
2023-04-26T04:12:54.000Z,5.992766373411554
2023-04-26T04:13:56.000Z,6.08030303030305
2023-04-26T04:14:58.000Z,6.099755620723382
2023-04-26T04:16:01.000Z,6.1192082111437145
2023-04-26T04:17:03.000Z,6.138660801564047
2023-04-26T04:18:05.000Z,6.1192082111437145
2023-04-26T04:19:07.000Z,6.051124144672551
2023-04-26T04:20:10.000Z,6.00249266862172
2023-04-26T04:21:12.000Z,6.060850439882717
2023-04-26T04:22:14.000Z,6.060850439882717
2023-04-26T04:23:17.000Z,6.041397849462385
2023-04-26T04:24:19.000Z,6.090029325513216
2023-04-26T04:25:21.000Z,6.031671554252219
2023-04-26T04:26:24.000Z,6.012218963831886
2023-04-26T04:27:26.000Z,6.060850439882717
2023-04-26T04:28:28.000Z,6.070576735092883
2023-04-26T04:29:30.000Z,6.070576735092883
2023-04-26T04:30:33.000Z,6.060850439882717
2023-04-26T04:31:35.000Z,6.041397849462385
2023-04-26T04:32:37.000Z,6.099755620723382
2023-04-26T04:33:40.000Z,6.060850439882717
2023-04-26T04:34:42.000Z,6.090029325513216
2023-04-26T04:35:44.000Z,6.1192082111437145
2023-04-26T04:36:47.000Z,6.08030303030305
2023-04-26T04:37:49.000Z,6.060850439882717
2023-04-26T04:38:51.000Z,6.1192082111437145
2023-04-26T04:39:54.000Z,6.138660801564047
2023-04-26T04:40:56.000Z,6.109481915933548
2023-04-26T04:41:58.000Z,6.109481915933548
2023-04-26T04:43:01.000Z,6.08030303030305
2023-04-26T04:44:03.000Z,6.138660801564047
2023-04-26T04:45:05.000Z,6.128934506353881
2023-04-26T04:46:07.000Z,6.1192082111437145
2023-04-26T04:47:10.000Z,6.099755620723382
2023-04-26T04:48:12.000Z,6.08030303030305
2023-04-26T04:49:14.000Z,6.099755620723382
2023-04-26T04:50:17.000Z,6.060850439882717
2023-04-26T04:51:19.000Z,6.08030303030305
2023-04-26T04:52:21.000Z,6.1192082111437145
2023-04-26T04:53:23.000Z,6.031671554252219
2023-04-26T04:54:26.000Z,6.090029325513216
2023-04-26T04:55:28.000Z,6.1192082111437145
2023-04-26T04:56:30.000Z,6.099755620723382
2023-04-26T04:57:33.000Z,6.041397849462385
2023-04-26T04:58:35.000Z,6.060850439882717
2023-04-26T04:59:37.000Z,6.031671554252219
2023-04-26T05:00:40.000Z,6.051124144672551
2023-04-26T05:01:42.000Z,6.012218963831886
2023-04-26T05:02:44.000Z,6.08030303030305
2023-04-26T05:03:46.000Z,6.051124144672551
2023-04-26T05:04:49.000Z,6.051124144672551
2023-04-26T05:05:51.000Z,6.021945259042052
2023-04-26T05:06:53.000Z,6.051124144672551
2023-04-26T05:07:56.000Z,6.090029325513216
2023-04-26T05:08:58.000Z,6.1192082111437145
2023-04-26T05:10:00.000Z,6.090029325513216
2023-04-26T05:11:02.000Z,6.090029325513216
2023-04-26T05:12:05.000Z,6.070576735092883
2023-04-26T05:13:07.000Z,6.070576735092883
2023-04-26T05:14:09.000Z,6.012218963831886
2023-04-26T05:15:12.000Z,5.992766373411554
2023-04-26T05:16:14.000Z,6.012218963831886
2023-04-26T05:17:16.000Z,6.00249266862172
2023-04-26T05:18:19.000Z,5.934408602150556
2023-04-26T05:19:21.000Z,5.963587487781055
2023-04-26T05:20:23.000Z,5.963587487781055
2023-04-26T05:21:25.000Z,5.953861192570889
2023-04-26T05:22:28.000Z,5.953861192570889
2023-04-26T05:23:30.000Z,5.973313782991221
2023-04-26T05:24:32.000Z,5.953861192570889
2023-04-26T05:25:34.000Z,5.934408602150556
2023-04-26T05:26:37.000Z,5.953861192570889
2023-04-26T05:27:39.000Z,5.895503421309892
2023-04-26T05:28:41.000Z,5.9830400782013875
2023-04-26T05:29:44.000Z,5.934408602150556
2023-04-26T05:30:46.000Z,5.992766373411554
2023-04-26T05:31:49.000Z,5.9830400782013875
2023-04-26T05:32:51.000Z,5.934408602150556
2023-04-26T05:33:53.000Z,6.00249266862172
2023-04-26T05:34:55.000Z,6.00249266862172
2023-04-26T05:35:58.000Z,5.9830400782013875
2023-04-26T05:37:00.000Z,6.00249266862172
2023-04-26T05:38:02.000Z,5.9830400782013875
2023-04-26T05:39:05.000Z,5.992766373411554
2023-04-26T05:40:07.000Z,5.992766373411554
2023-04-26T05:41:09.000Z,5.992766373411554
2023-04-26T05:42:12.000Z,5.914956011730224
2023-04-26T05:43:14.000Z,5.963587487781055
2023-04-26T05:44:16.000Z,5.953861192570889
2023-04-26T05:45:18.000Z,5.944134897360723
2023-04-26T05:46:21.000Z,5.934408602150556
2023-04-26T05:47:23.000Z,5.944134897360723
2023-04-26T05:48:25.000Z,5.992766373411554
2023-04-26T05:49:28.000Z,5.944134897360723
2023-04-26T05:50:30.000Z,5.914956011730224
2023-04-26T05:51:32.000Z,5.934408602150556
2023-04-26T05:52:35.000Z,5.944134897360723
2023-04-26T05:53:37.000Z,5.885777126099725
2023-04-26T05:54:39.000Z,5.934408602150556
2023-04-26T05:55:41.000Z,5.973313782991221
2023-04-26T05:56:44.000Z,5.963587487781055
2023-04-26T05:57:46.000Z,5.914956011730224
2023-04-26T05:58:48.000Z,5.953861192570889
2023-04-26T05:59:51.000Z,5.963587487781055
2023-04-26T06:00:53.000Z,5.963587487781055
2023-04-26T06:01:55.000Z,5.944134897360723
2023-04-26T06:02:57.000Z,5.963587487781055
2023-04-26T06:04:00.000Z,6.00249266862172
2023-04-26T06:05:02.000Z,5.953861192570889
2023-04-26T06:06:04.000Z,5.953861192570889
2023-04-26T06:07:07.000Z,5.944134897360723
2023-04-26T06:08:09.000Z,5.973313782991221
2023-04-26T06:09:12.000Z,6.00249266862172
2023-04-26T06:10:14.000Z,5.963587487781055
2023-04-26T06:11:16.000Z,5.876050830889559
2023-04-26T06:12:18.000Z,5.92468230694039
2023-04-26T06:13:21.000Z,5.934408602150556
2023-04-26T06:14:23.000Z,5.92468230694039
2023-04-26T06:15:25.000Z,5.914956011730224
2023-04-26T06:16:27.000Z,5.905229716520058
2023-04-26T06:17:30.000Z,5.905229716520058
2023-04-26T06:18:32.000Z,5.885777126099725
2023-04-26T06:19:35.000Z,5.914956011730224
2023-04-26T06:20:37.000Z,5.885777126099725
2023-04-26T06:21:39.000Z,5.905229716520058
2023-04-26T06:22:41.000Z,5.895503421309892
2023-04-26T06:23:44.000Z,5.92468230694039
2023-04-26T06:24:46.000Z,5.944134897360723
2023-04-26T06:25:48.000Z,5.914956011730224
2023-04-26T06:26:51.000Z,5.944134897360723
2023-04-26T06:27:53.000Z,5.963587487781055
2023-04-26T06:28:55.000Z,5.953861192570889
2023-04-26T06:29:58.000Z,5.953861192570889
2023-04-26T06:31:00.000Z,5.944134897360723
2023-04-26T06:32:02.000Z,5.973313782991221
2023-04-26T06:33:05.000Z,5.973313782991221
2023-04-26T06:34:07.000Z,5.973313782991221
2023-04-26T06:35:09.000Z,5.973313782991221
2023-04-26T06:36:12.000Z,5.92468230694039
2023-04-26T06:37:14.000Z,5.934408602150556
2023-04-26T06:38:16.000Z,5.914956011730224
2023-04-26T06:39:19.000Z,5.905229716520058
2023-04-26T06:40:21.000Z,5.837145650048894
2023-04-26T06:41:23.000Z,5.876050830889559
2023-04-26T06:42:26.000Z,5.914956011730224
2023-04-26T06:43:28.000Z,5.905229716520058
2023-04-26T06:44:30.000Z,5.905229716520058
2023-04-26T06:45:32.000Z,5.876050830889559
2023-04-26T06:46:35.000Z,5.905229716520058
2023-04-26T06:47:37.000Z,5.914956011730224
2023-04-26T06:48:39.000Z,5.92468230694039
2023-04-26T06:49:42.000Z,5.914956011730224
2023-04-26T06:50:44.000Z,5.92468230694039
2023-04-26T06:51:46.000Z,5.944134897360723
2023-04-26T06:52:48.000Z,5.934408602150556
2023-04-26T06:53:51.000Z,5.944134897360723
2023-04-26T06:54:53.000Z,5.914956011730224
2023-04-26T06:55:55.000Z,5.914956011730224
2023-04-26T06:56:58.000Z,5.944134897360723
2023-04-26T06:58:00.000Z,5.914956011730224
2023-04-26T06:59:02.000Z,5.934408602150556
2023-04-26T07:00:05.000Z,5.973313782991221
2023-04-26T07:01:07.000Z,5.944134897360723
2023-04-26T07:02:09.000Z,5.944134897360723
2023-04-26T07:03:12.000Z,5.934408602150556
2023-04-26T07:04:14.000Z,5.953861192570889
2023-04-26T07:05:16.000Z,5.914956011730224
2023-04-26T07:06:18.000Z,5.895503421309892
2023-04-26T07:07:21.000Z,5.914956011730224
2023-04-26T07:08:23.000Z,5.895503421309892
2023-04-26T07:09:25.000Z,5.905229716520058
2023-04-26T07:10:28.000Z,5.944134897360723
2023-04-26T07:11:30.000Z,5.895503421309892
2023-04-26T07:12:32.000Z,5.876050830889559
2023-04-26T07:13:35.000Z,5.876050830889559
2023-04-26T07:14:37.000Z,5.885777126099725
2023-04-26T07:15:39.000Z,5.856598240469227
2023-04-26T07:16:41.000Z,5.866324535679393
2023-04-26T07:17:44.000Z,5.856598240469227
2023-04-26T07:18:46.000Z,5.876050830889559
2023-04-26T07:19:48.000Z,5.905229716520058
2023-04-26T07:20:51.000Z,5.885777126099725
2023-04-26T07:21:53.000Z,5.895503421309892
2023-04-26T07:22:55.000Z,5.895503421309892
2023-04-26T07:23:58.000Z,5.914956011730224
2023-04-26T07:25:00.000Z,5.905229716520058
2023-04-26T07:26:02.000Z,5.885777126099725
2023-04-26T07:27:05.000Z,5.885777126099725
2023-04-26T07:28:07.000Z,5.934408602150556
2023-04-26T07:29:09.000Z,5.934408602150556
2023-04-26T07:30:12.000Z,5.944134897360723
2023-04-26T07:31:14.000Z,5.963587487781055
2023-04-26T07:32:16.000Z,5.934408602150556
2023-04-26T07:33:18.000Z,5.885777126099725
2023-04-26T07:34:21.000Z,5.914956011730224
2023-04-26T07:35:23.000Z,5.914956011730224
2023-04-26T07:36:25.000Z,5.914956011730224
2023-04-26T07:37:28.000Z,5.885777126099725
2023-04-26T07:38:30.000Z,5.895503421309892
2023-04-26T07:39:32.000Z,5.895503421309892
2023-04-26T07:40:34.000Z,5.905229716520058
2023-04-26T07:41:37.000Z,5.905229716520058
2023-04-26T07:42:39.000Z,5.885777126099725
2023-04-26T07:43:41.000Z,5.92468230694039
2023-04-26T07:44:43.000Z,5.895503421309892
2023-04-26T07:45:46.000Z,5.944134897360723
2023-04-26T07:46:48.000Z,5.944134897360723
2023-04-26T07:47:50.000Z,5.934408602150556
2023-04-26T07:48:53.000Z,5.92468230694039
2023-04-26T07:49:55.000Z,5.963587487781055
2023-04-26T07:50:57.000Z,5.934408602150556
2023-04-26T07:52:00.000Z,5.9830400782013875
2023-04-26T07:53:02.000Z,5.9830400782013875
2023-04-26T07:54:04.000Z,5.973313782991221
2023-04-26T07:55:07.000Z,5.973313782991221
2023-04-26T07:56:09.000Z,6.021945259042052
2023-04-26T07:57:11.000Z,6.031671554252219
2023-04-26T07:58:14.000Z,6.021945259042052
2023-04-26T07:59:16.000Z,5.992766373411554
2023-04-26T08:00:18.000Z,5.944134897360723
2023-04-26T08:01:20.000Z,5.973313782991221
2023-04-26T08:02:23.000Z,5.953861192570889
2023-04-26T08:03:25.000Z,5.944134897360723
2023-04-26T08:04:27.000Z,5.944134897360723
2023-04-26T08:05:30.000Z,5.944134897360723
2023-04-26T08:06:32.000Z,5.944134897360723
2023-04-26T08:07:34.000Z,5.944134897360723
2023-04-26T08:08:36.000Z,5.866324535679393
2023-04-26T08:09:39.000Z,5.914956011730224
2023-04-26T08:10:41.000Z,5.92468230694039
2023-04-26T08:11:43.000Z,5.934408602150556
2023-04-26T08:12:46.000Z,5.934408602150556
2023-04-26T08:13:48.000Z,5.934408602150556
2023-04-26T08:14:50.000Z,5.944134897360723
2023-04-26T08:15:52.000Z,6.021945259042052
2023-04-26T08:16:55.000Z,6.021945259042052
2023-04-26T08:17:57.000Z,6.00249266862172
2023-04-26T08:18:59.000Z,6.00249266862172
2023-04-26T08:20:02.000Z,5.973313782991221
2023-04-26T08:21:04.000Z,5.953861192570889
2023-04-26T08:22:06.000Z,6.012218963831886
2023-04-26T08:23:09.000Z,6.021945259042052
2023-04-26T08:24:11.000Z,6.012218963831886
2023-04-26T08:25:13.000Z,6.00249266862172
2023-04-26T08:26:16.000Z,5.92468230694039
2023-04-26T08:27:18.000Z,6.012218963831886
2023-04-26T08:28:20.000Z,5.973313782991221
2023-04-26T08:29:22.000Z,5.992766373411554
2023-04-26T08:30:25.000Z,5.973313782991221
2023-04-26T08:31:27.000Z,5.963587487781055
2023-04-26T08:32:29.000Z,5.973313782991221
2023-04-26T08:33:32.000Z,5.953861192570889
2023-04-26T08:34:34.000Z,5.963587487781055
2023-04-26T08:35:36.000Z,5.934408602150556
2023-04-26T08:36:39.000Z,5.92468230694039
2023-04-26T08:37:41.000Z,5.905229716520058
2023-04-26T08:38:43.000Z,5.934408602150556
2023-04-26T08:39:45.000Z,5.944134897360723
2023-04-26T08:40:48.000Z,5.914956011730224
2023-04-26T08:41:50.000Z,5.953861192570889
2023-04-26T08:42:52.000Z,5.9830400782013875
2023-04-26T08:43:54.000Z,6.012218963831886
2023-04-26T08:44:57.000Z,6.021945259042052
2023-04-26T08:45:59.000Z,5.9830400782013875
2023-04-26T08:47:01.000Z,6.012218963831886
2023-04-26T08:48:04.000Z,6.00249266862172
2023-04-26T08:49:06.000Z,6.012218963831886
2023-04-26T08:50:08.000Z,6.041397849462385
2023-04-26T08:51:11.000Z,6.041397849462385
2023-04-26T08:52:13.000Z,6.051124144672551
2023-04-26T08:53:15.000Z,6.070576735092883
2023-04-26T08:54:18.000Z,6.070576735092883
2023-04-26T08:55:20.000Z,6.021945259042052
2023-04-26T08:56:22.000Z,6.08030303030305
2023-04-26T08:57:25.000Z,6.070576735092883
2023-04-26T08:58:27.000Z,6.021945259042052
2023-04-26T08:59:29.000Z,6.031671554252219
2023-04-26T09:00:31.000Z,6.031671554252219
2023-04-26T09:01:34.000Z,6.012218963831886
2023-04-26T09:02:36.000Z,6.012218963831886
2023-04-26T09:03:38.000Z,6.031671554252219
2023-04-26T09:04:41.000Z,5.992766373411554
2023-04-26T09:05:43.000Z,6.00249266862172
2023-04-26T09:06:45.000Z,5.992766373411554
2023-04-26T09:07:47.000Z,6.031671554252219
2023-04-26T09:08:50.000Z,6.041397849462385
2023-04-26T09:09:52.000Z,6.070576735092883
2023-04-26T09:10:54.000Z,6.060850439882717
2023-04-26T09:11:57.000Z,6.051124144672551
2023-04-26T09:12:59.000Z,6.041397849462385
2023-04-26T09:14:01.000Z,6.08030303030305
2023-04-26T09:15:04.000Z,6.060850439882717
2023-04-26T09:16:06.000Z,6.099755620723382
2023-04-26T09:17:08.000Z,6.08030303030305
2023-04-26T09:18:10.000Z,6.138660801564047
2023-04-26T09:19:13.000Z,6.109481915933548
2023-04-26T09:20:15.000Z,6.128934506353881
2023-04-26T09:21:17.000Z,6.138660801564047
2023-04-26T09:22:19.000Z,6.138660801564047
2023-04-26T09:23:22.000Z,6.1192082111437145
2023-04-26T09:24:24.000Z,6.08030303030305
2023-04-26T09:25:26.000Z,6.099755620723382
2023-04-26T09:26:29.000Z,6.099755620723382
2023-04-26T09:27:31.000Z,6.109481915933548
2023-04-26T09:28:33.000Z,6.099755620723382
2023-04-26T09:29:36.000Z,6.060850439882717
2023-04-26T09:30:38.000Z,5.973313782991221
2023-04-26T09:31:40.000Z,6.051124144672551
2023-04-26T09:32:43.000Z,6.060850439882717
2023-04-26T09:33:45.000Z,6.021945259042052
2023-04-26T09:34:47.000Z,5.992766373411554
2023-04-26T09:35:49.000Z,6.00249266862172
2023-04-26T09:36:52.000Z,5.973313782991221
2023-04-26T09:37:54.000Z,5.992766373411554
2023-04-26T09:38:56.000Z,6.041397849462385